createdAt,value
2022-11-06T00:02:00.157Z,18.88
2022-11-06T00:04:30.374Z,20.63
2022-11-06T00:06:58.458Z,19.30
2022-11-06T00:09:27.110Z,23.08
2022-11-06T00:11:54.352Z,20.63
2022-11-06T00:14:21.433Z,21.40
2022-11-06T00:16:49.289Z,22.73
2022-11-06T00:19:17.234Z,23.35
2022-11-06T00:21:45.145Z,24.35
2022-11-06T00:24:14.022Z,21.65
2022-11-06T00:26:43.161Z,21.35
2022-11-06T00:29:14.715Z,21.13
2022-11-06T00:31:42.465Z,21.23
2022-11-06T00:34:10.830Z,21.67
2022-11-06T00:36:38.579Z,21.08
2022-11-06T00:39:05.751Z,21.17
2022-11-06T00:41:32.788Z,20.63
2022-11-06T00:44:01.939Z,21.15
2022-11-06T00:46:29.374Z,20.30
2022-11-06T00:48:56.905Z,20.27
2022-11-06T00:51:30.040Z,20.67
2022-11-06T00:53:59.154Z,21.98
2022-11-06T00:56:27.454Z,21.83
2022-11-06T00:58:55.695Z,21.05
2022-11-06T01:01:36.388Z,21.75
2022-11-06T01:04:10.560Z,21.95
2022-11-06T01:06:44.237Z,22.75
2022-11-06T01:09:17.204Z,20.73
2022-11-06T01:14:42.783Z,21.73
2022-11-06T01:17:11.386Z,22.17
2022-11-06T01:19:38.582Z,20.05
2022-11-06T01:22:06.283Z,21.88
2022-11-06T01:24:33.515Z,21.95
2022-11-06T01:29:49.387Z,19.75
2022-11-06T01:32:16.444Z,22.08
2022-11-06T01:34:44.180Z,20.67
2022-11-06T01:37:14.477Z,23.00
2022-11-06T01:39:43.538Z,20.48
2022-11-06T01:42:13.221Z,22.35
2022-11-06T01:44:43.496Z,21.88
2022-11-06T01:47:29.004Z,21.75
2022-11-06T01:50:05.959Z,23.23
2022-11-06T01:52:34.770Z,21.38
2022-11-06T01:55:19.747Z,21.08
2022-11-06T01:57:48.451Z,21.13
2022-11-06T02:00:17.845Z,20.77
2022-11-06T02:02:45.309Z,21.13
2022-11-06T02:05:13.643Z,21.70
2022-11-06T02:07:42.887Z,23.00
2022-11-06T02:10:10.453Z,22.70
2022-11-06T02:12:50.179Z,20.60
2022-11-06T02:15:40.197Z,23.27
2022-11-06T02:18:23.772Z,20.90
2022-11-06T02:21:09.748Z,20.98
2022-11-06T02:23:42.558Z,22.35
2022-11-06T02:26:21.452Z,21.25
2022-11-06T02:29:00.934Z,19.80
2022-11-06T02:31:32.132Z,20.33
2022-11-06T02:34:07.623Z,21.48
2022-11-06T02:36:41.054Z,20.85
2022-11-06T02:39:14.444Z,22.35
2022-11-06T02:41:47.054Z,21.73
2022-11-06T02:44:21.432Z,23.42
2022-11-06T02:49:28.662Z,23.33
2022-11-06T02:52:01.325Z,23.50
2022-11-06T02:54:32.076Z,24.67
2022-11-06T02:57:03.963Z,25.35
2022-11-06T03:00:00.306Z,23.45
2022-11-06T03:03:00.663Z,22.95
2022-11-06T03:05:33.543Z,25.20
2022-11-06T03:08:19.048Z,27.63
2022-11-06T03:10:58.716Z,28.00
2022-11-06T03:13:43.559Z,26.13
2022-11-06T03:19:26.540Z,23.75
2022-11-06T03:22:04.229Z,24.70
2022-11-06T03:24:41.075Z,25.73
2022-11-06T03:27:36.164Z,24.48
2022-11-06T03:30:13.787Z,24.73
2022-11-06T03:32:52.787Z,24.27
2022-11-06T03:35:31.628Z,23.70
2022-11-06T03:38:27.826Z,22.73
2022-11-06T03:41:02.253Z,24.67
2022-11-06T03:46:02.018Z,21.80
2022-11-06T03:48:36.862Z,21.77
2022-11-06T03:51:03.940Z,22.05
2022-11-06T03:53:45.605Z,20.88
2022-11-06T03:56:37.290Z,19.40
2022-11-06T03:59:07.463Z,22.17
2022-11-06T04:01:38.868Z,21.55
2022-11-06T04:04:08.764Z,21.42
2022-11-06T04:06:41.616Z,21.05
2022-11-06T04:09:30.993Z,20.55
2022-11-06T04:12:22.475Z,21.55
2022-11-06T04:14:53.319Z,21.30
2022-11-06T04:17:22.471Z,20.95
2022-11-06T04:19:55.396Z,20.10
2022-11-06T04:22:42.227Z,22.80
2022-11-06T04:25:27.931Z,19.90
2022-11-06T04:28:19.842Z,19.10
2022-11-06T04:31:27.610Z,20.15
2022-11-06T04:34:06.602Z,21.52
2022-11-06T04:36:47.715Z,21.13
2022-11-06T04:39:23.670Z,20.42
2022-11-06T04:42:20.066Z,19.00
2022-11-06T04:44:55.501Z,20.48
2022-11-06T04:47:24.205Z,18.90
2022-11-06T04:49:54.131Z,19.52
2022-11-06T04:52:25.645Z,20.00
2022-11-06T04:54:59.185Z,19.05
2022-11-06T04:57:27.358Z,17.17
2022-11-06T04:59:56.991Z,18.92
2022-11-06T05:02:25.155Z,18.27
2022-11-06T05:04:52.294Z,18.95
2022-11-06T05:07:19.386Z,18.90
2022-11-06T05:09:46.548Z,18.00
2022-11-06T05:12:13.817Z,18.63
2022-11-06T05:14:40.937Z,20.02
2022-11-06T05:17:08.119Z,19.27
2022-11-06T05:19:35.247Z,18.65
2022-11-06T05:22:20.757Z,17.90
2022-11-06T05:24:48.036Z,19.38
2022-11-06T05:27:15.220Z,20.23
2022-11-06T05:29:42.704Z,20.23
2022-11-06T05:32:11.109Z,17.70
2022-11-06T05:34:38.262Z,19.73
2022-11-06T05:37:05.390Z,21.52
2022-11-06T05:39:32.490Z,21.73
2022-11-06T05:42:00.048Z,21.98
2022-11-06T05:44:27.505Z,20.10
2022-11-06T05:46:54.860Z,20.40
2022-11-06T05:49:22.171Z,19.60
2022-11-06T05:51:49.402Z,19.40
2022-11-06T05:54:16.571Z,20.70
2022-11-06T05:56:43.690Z,21.10
2022-11-06T05:59:11.165Z,21.77
2022-11-06T06:01:38.331Z,23.23
2022-11-06T06:04:05.683Z,23.23
2022-11-06T06:06:33.627Z,25.38
2022-11-06T06:09:02.126Z,25.63
2022-11-06T06:11:30.215Z,25.77
2022-11-06T06:13:57.322Z,27.48
2022-11-06T06:16:24.712Z,23.85
2022-11-06T06:18:52.259Z,23.95
2022-11-06T06:21:19.639Z,23.65
2022-11-06T06:23:47.079Z,22.65
2022-11-06T06:26:14.262Z,22.77
2022-11-06T06:28:41.731Z,21.88
2022-11-06T06:31:09.964Z,20.83
2022-11-06T06:33:37.168Z,21.10
2022-11-06T06:36:05.653Z,20.88
2022-11-06T06:38:34.982Z,20.65
2022-11-06T06:41:05.956Z,20.77
2022-11-06T06:43:33.423Z,18.85
2022-11-06T06:46:02.492Z,18.20
2022-11-06T06:48:30.115Z,17.42
2022-11-06T06:51:02.388Z,16.80
2022-11-06T06:53:30.092Z,18.42
2022-11-06T06:56:02.829Z,17.15
2022-11-06T06:58:32.630Z,16.17
2022-11-06T07:01:06.324Z,15.50
2022-11-06T07:03:33.794Z,17.83
2022-11-06T07:06:01.110Z,16.88
2022-11-06T07:08:29.795Z,17.15
2022-11-06T07:11:06.248Z,17.10
2022-11-06T07:13:36.085Z,16.80
2022-11-06T07:16:05.930Z,15.82
2022-11-06T07:18:34.395Z,14.68
2022-11-06T07:21:04.470Z,14.10
2022-11-06T07:23:31.669Z,15.00
2022-11-06T07:25:58.925Z,14.93
2022-11-06T07:28:26.248Z,14.40
2022-11-06T07:30:57.726Z,14.48
2022-11-06T07:33:24.851Z,15.27
2022-11-06T07:35:52.015Z,14.20
2022-11-06T07:38:19.209Z,14.90
2022-11-06T07:40:46.594Z,15.00
2022-11-06T07:43:14.151Z,14.15
2022-11-06T07:45:41.401Z,14.52
2022-11-06T07:48:08.538Z,13.95
2022-11-06T07:50:35.622Z,13.85
2022-11-06T07:53:03.365Z,13.20
2022-11-06T07:55:30.773Z,13.38
2022-11-06T07:57:59.701Z,12.38
2022-11-06T08:00:27.073Z,12.73
2022-11-06T08:02:56.530Z,12.30
2022-11-06T08:05:23.667Z,13.43
2022-11-06T08:07:56.727Z,17.73
2022-11-06T08:10:23.972Z,96.82
2022-11-06T08:12:51.205Z,82.93
2022-11-06T08:15:18.286Z,80.90
2022-11-06T08:17:45.521Z,74.50
2022-11-06T08:20:12.767Z,41.53
2022-11-06T08:22:39.952Z,76.00
2022-11-06T08:25:07.896Z,77.97
2022-11-06T08:27:35.087Z,60.83
2022-11-06T08:30:03.238Z,34.22
2022-11-06T08:32:31.992Z,47.25
2022-11-06T08:35:00.647Z,63.17
2022-11-06T08:37:28.891Z,81.93
2022-11-06T08:39:59.249Z,49.95
2022-11-06T08:42:29.049Z,36.42
2022-11-06T08:44:57.725Z,21.27
2022-11-06T08:47:27.074Z,22.30
2022-11-06T08:49:56.616Z,20.23
2022-11-06T08:52:29.899Z,28.30
2022-11-06T08:55:02.421Z,27.92
2022-11-06T08:57:32.120Z,23.77
2022-11-06T09:00:03.059Z,17.85
2022-11-06T09:02:33.789Z,17.10
2022-11-06T09:05:04.331Z,21.60
2022-11-06T09:07:33.992Z,13.90
2022-11-06T09:10:03.409Z,14.70
2022-11-06T09:12:32.765Z,13.55
2022-11-06T09:15:01.713Z,13.93
2022-11-06T09:17:30.666Z,15.48
2022-11-06T09:20:08.095Z,15.57
2022-11-06T09:22:41.406Z,13.52
2022-11-06T09:25:11.760Z,11.50
2022-11-06T09:27:44.693Z,12.30
2022-11-06T09:30:16.697Z,11.60
2022-11-06T09:32:54.782Z,11.82
2022-11-06T09:35:35.135Z,11.82
2022-11-06T09:38:34.703Z,12.10
2022-11-06T09:44:28.768Z,11.63
2022-11-06T09:47:17.749Z,10.85
2022-11-06T09:53:10.702Z,10.35
2022-11-06T09:56:14.593Z,9.82
2022-11-06T15:02:26.724Z,4.80
2022-11-06T15:05:14.803Z,5.55
2022-11-06T15:08:04.605Z,6.10
2022-11-06T15:10:42.967Z,5.45
2022-11-06T15:13:24.537Z,5.30
2022-11-06T15:16:01.769Z,5.40
2022-11-06T15:18:33.608Z,5.90
2022-11-06T15:21:04.125Z,5.88
2022-11-06T15:24:06.630Z,5.20
2022-11-06T15:26:46.019Z,5.35
2022-11-06T15:29:37.293Z,5.50
2022-11-06T15:32:21.824Z,6.10
2022-11-06T15:35:08.638Z,6.75
2022-11-06T15:37:51.811Z,5.65
2022-11-06T15:40:26.004Z,6.07
2022-11-06T15:42:54.688Z,6.65
2022-11-06T15:45:26.983Z,6.60
2022-11-06T15:48:01.518Z,7.63
2022-11-06T15:50:36.219Z,8.85
2022-11-06T15:53:22.829Z,9.95
2022-11-06T15:56:09.681Z,11.75
2022-11-06T15:58:38.594Z,10.77
2022-11-06T16:01:08.006Z,15.07
2022-11-06T16:03:53.576Z,15.48
2022-11-06T16:06:21.750Z,15.73
2022-11-06T16:08:50.536Z,16.90
2022-11-06T16:11:19.462Z,16.75
2022-11-06T16:13:47.600Z,15.85
2022-11-06T16:16:34.780Z,17.67
2022-11-06T16:19:05.423Z,19.30
2022-11-06T16:21:36.137Z,19.10
2022-11-06T16:24:18.391Z,18.42
2022-11-06T16:26:51.062Z,17.10
2022-11-06T16:29:24.944Z,20.40
2022-11-06T16:32:16.385Z,18.75
2022-11-06T16:34:46.148Z,20.80
2022-11-06T16:37:16.276Z,20.50
2022-11-06T16:39:50.100Z,18.92
2022-11-06T16:42:43.594Z,21.92
2022-11-06T16:45:19.740Z,23.13
2022-11-06T16:48:16.331Z,20.27
2022-11-06T16:50:57.571Z,20.30
2022-11-06T16:53:28.375Z,21.88
2022-11-06T16:56:00.391Z,22.35
2022-11-06T16:58:31.313Z,20.10
2022-11-06T17:01:04.388Z,19.38
2022-11-06T17:03:55.528Z,19.25
2022-11-06T17:06:35.307Z,19.98
2022-11-06T17:09:09.081Z,19.85
2022-11-06T17:14:17.137Z,21.83
2022-11-06T17:16:50.716Z,40.88
2022-11-06T17:19:21.485Z,25.07
2022-11-06T17:21:50.259Z,21.27
2022-11-06T17:24:35.902Z,25.48
2022-11-06T17:27:04.210Z,21.30
2022-11-06T17:29:31.662Z,26.48
2022-11-06T17:31:58.824Z,42.05
2022-11-06T17:34:25.869Z,44.80
2022-11-06T17:36:53.034Z,64.57
2022-11-06T17:39:20.089Z,53.80
2022-11-06T17:41:47.207Z,42.25
2022-11-06T17:44:14.325Z,120.80
2022-11-06T17:46:44.015Z,87.65
2022-11-06T17:49:17.189Z,76.20
2022-11-06T17:52:00.243Z,62.60
2022-11-06T17:54:30.484Z,39.63
2022-11-06T17:56:58.686Z,35.00
2022-11-06T17:59:26.578Z,30.38
2022-11-06T18:01:55.137Z,328.20
2022-11-06T18:04:24.346Z,284.50
2022-11-06T18:06:53.152Z,169.98
2022-11-06T18:09:21.478Z,137.90
2022-11-06T18:11:53.597Z,110.28
2022-11-06T18:14:21.514Z,92.80
2022-11-06T18:16:49.034Z,84.05
2022-11-06T18:19:18.412Z,63.63
2022-11-06T18:21:46.107Z,44.92
2022-11-06T18:24:13.234Z,47.13
2022-11-06T18:26:40.333Z,49.85
2022-11-06T18:29:08.799Z,40.00
2022-11-06T18:31:36.303Z,40.22
2022-11-06T18:34:04.666Z,36.92
2022-11-06T18:36:36.824Z,36.42
2022-11-06T18:39:08.177Z,30.73
2022-11-06T18:41:35.776Z,24.95
2022-11-06T18:44:03.507Z,23.08
2022-11-06T18:46:30.944Z,25.35
2022-11-06T18:48:58.475Z,23.52
2022-11-06T18:51:35.029Z,22.27
2022-11-06T18:54:05.834Z,24.65
2022-11-06T18:56:36.232Z,24.38
2022-11-06T18:59:07.713Z,23.05
2022-11-06T19:01:35.577Z,22.65
2022-11-06T19:04:04.216Z,22.23
2022-11-06T19:06:32.222Z,22.58
2022-11-06T19:08:59.396Z,23.10
2022-11-06T19:11:26.637Z,23.23
2022-11-06T19:13:53.944Z,24.02
2022-11-06T19:16:21.435Z,23.98
2022-11-06T19:21:30.405Z,24.85
2022-11-06T19:24:04.455Z,23.05
2022-11-06T19:26:33.654Z,24.42
2022-11-06T19:29:01.314Z,56.90
2022-11-06T19:31:29.811Z,64.72
2022-11-06T19:33:59.199Z,41.30
2022-11-06T19:36:26.849Z,29.25
2022-11-06T19:38:54.333Z,26.45
2022-11-06T19:41:21.712Z,26.00
2022-11-06T19:43:48.852Z,25.35
2022-11-06T19:46:24.096Z,24.75
2022-11-06T19:48:53.100Z,26.77
2022-11-06T19:51:20.385Z,25.42
2022-11-06T19:53:51.241Z,25.63
2022-11-06T19:56:18.965Z,25.02
2022-11-06T19:58:47.367Z,24.65
2022-11-06T20:01:14.779Z,23.50
2022-11-06T20:03:42.612Z,23.13
2022-11-06T20:06:10.461Z,22.90
2022-11-06T20:08:38.895Z,25.58
2022-11-06T20:11:08.235Z,29.23
2022-11-06T20:13:39.188Z,28.10
2022-11-06T20:16:08.416Z,31.08
2022-11-06T20:18:35.994Z,28.60
2022-11-06T20:21:04.825Z,27.15
2022-11-06T20:23:33.045Z,31.88
2022-11-06T20:26:00.201Z,28.42
2022-11-06T20:28:27.629Z,30.73
2022-11-06T20:30:55.104Z,26.75
2022-11-06T20:33:22.921Z,26.27
2022-11-06T20:35:50.102Z,25.67
2022-11-06T20:38:17.730Z,26.13
2022-11-06T20:40:45.405Z,27.35
2022-11-06T20:43:12.890Z,29.08
2022-11-06T20:45:40.297Z,27.63
2022-11-06T20:48:09.239Z,29.02
2022-11-06T20:50:36.466Z,28.02
2022-11-06T20:53:04.026Z,25.52
2022-11-06T20:55:31.115Z,27.33
2022-11-06T20:57:58.240Z,27.02
2022-11-06T21:00:25.295Z,26.52
2022-11-06T21:02:54.315Z,27.98
2022-11-06T21:05:25.187Z,29.67
2022-11-06T21:07:52.214Z,29.13
2022-11-06T21:10:19.264Z,33.97
2022-11-06T21:12:46.327Z,31.00
2022-11-06T21:15:13.381Z,35.40
2022-11-06T21:17:43.536Z,47.25
2022-11-06T21:20:11.174Z,45.13
2022-11-06T21:22:38.225Z,37.97
2022-11-06T21:25:05.568Z,32.45
2022-11-06T21:27:32.664Z,33.70
2022-11-06T21:29:59.688Z,28.73
2022-11-06T21:32:27.147Z,29.10
2022-11-06T21:34:54.197Z,28.25
2022-11-06T21:37:33.020Z,32.85
2022-11-06T21:40:00.751Z,32.10
2022-11-06T21:42:27.928Z,27.60
2022-11-06T21:44:55.061Z,27.63
2022-11-06T21:47:22.094Z,27.83
2022-11-06T21:49:54.124Z,28.85
2022-11-06T21:52:41.076Z,30.35
2022-11-06T21:55:28.337Z,30.77
2022-11-06T21:57:55.498Z,29.30
2022-11-06T22:00:22.604Z,30.02
2022-11-06T22:02:51.326Z,29.00
2022-11-06T22:05:18.681Z,29.75
2022-11-06T22:07:46.010Z,29.67
2022-11-06T22:10:13.304Z,32.25
2022-11-06T22:12:40.720Z,32.90
2022-11-06T22:15:08.577Z,29.88
2022-11-06T22:17:35.705Z,32.65
2022-11-06T22:20:03.434Z,31.92
2022-11-06T22:22:30.581Z,31.35
2022-11-06T22:24:57.676Z,32.70
2022-11-06T22:27:24.750Z,34.45
2022-11-06T22:29:52.056Z,32.78
2022-11-06T22:32:19.115Z,33.83
2022-11-06T22:34:46.220Z,34.63
2022-11-06T22:37:13.267Z,35.97
2022-11-06T22:39:40.346Z,35.95
2022-11-06T22:42:07.499Z,34.17
2022-11-06T22:44:35.814Z,34.75
2022-11-06T22:47:03.615Z,37.85
2022-11-06T22:49:30.777Z,34.83
2022-11-06T22:51:57.796Z,35.50
2022-11-06T22:54:24.949Z,35.67
2022-11-06T22:56:52.042Z,34.30
2022-11-06T22:59:21.258Z,35.15
2022-11-06T23:01:48.326Z,35.30
2022-11-06T23:04:15.551Z,37.50
2022-11-06T23:06:44.755Z,34.13
2022-11-06T23:09:12.779Z,33.70
2022-11-06T23:11:39.979Z,34.95
2022-11-06T23:14:09.141Z,34.03
2022-11-06T23:16:55.797Z,33.78
2022-11-06T23:19:23.627Z,32.85
2022-11-06T23:21:50.799Z,32.22
2022-11-06T23:24:17.861Z,31.75
2022-11-06T23:26:45.136Z,32.83
2022-11-06T23:29:12.213Z,34.88
2022-11-06T23:31:41.393Z,29.52
2022-11-06T23:34:08.777Z,37.25
2022-11-06T23:36:36.134Z,34.22
2022-11-06T23:39:03.200Z,31.80
2022-11-06T23:41:48.334Z,31.73
2022-11-06T23:44:34.199Z,32.22
2022-11-06T23:47:01.927Z,34.80
2022-11-06T23:49:29.478Z,33.35
2022-11-06T23:51:56.951Z,31.38
2022-11-06T23:54:25.382Z,32.67
2022-11-06T23:56:52.509Z,33.63
2022-11-06T23:59:19.786Z,32.08
